createdAt,value
2018-10-03T00:04:59.992Z,1.47
2018-10-03T00:10:04.740Z,1.32
2018-10-03T00:15:09.595Z,0.98
2018-10-03T00:20:14.775Z,1.32
2018-10-03T00:26:22.745Z,1.30
2018-10-03T00:31:27.895Z,1.32
2018-10-03T00:36:32.454Z,1.45
2018-10-03T00:41:37.298Z,1.10
2018-10-03T00:46:42.356Z,1.45
2018-10-03T00:51:46.851Z,1.27
2018-10-03T00:56:51.508Z,1.27
2018-10-03T01:01:55.960Z,1.50
2018-10-03T01:07:00.259Z,1.35
2018-10-03T01:12:04.773Z,1.52
2018-10-03T01:17:10.290Z,1.07
2018-10-03T01:22:14.697Z,1.00
2018-10-03T01:27:19.041Z,1.10
2018-10-03T01:32:30.456Z,0.98
2018-10-03T01:37:34.962Z,1.17
2018-10-03T01:42:39.401Z,1.15
2018-10-03T01:47:44.438Z,1.00
2018-10-03T01:52:49.595Z,1.35
2018-10-03T01:57:54.146Z,1.20
2018-10-03T02:02:58.734Z,1.25
2018-10-03T02:08:03.777Z,1.32
2018-10-03T02:13:08.336Z,1.27
2018-10-03T02:18:12.970Z,1.25
2018-10-03T02:23:17.533Z,0.98
2018-10-03T02:28:21.964Z,1.30
2018-10-03T02:33:26.603Z,1.22
2018-10-03T02:38:31.220Z,1.05
2018-10-03T02:43:35.657Z,1.20
2018-10-03T02:48:40.304Z,1.17
2018-10-03T02:53:45.256Z,1.30
2018-10-03T02:58:49.784Z,1.10
2018-10-03T03:03:54.460Z,1.07
2018-10-03T03:08:59.246Z,1.87
2018-10-03T03:14:03.808Z,1.10
2018-10-03T03:19:08.251Z,1.07
2018-10-03T03:24:12.795Z,1.30
2018-10-03T03:34:43.967Z,1.10
2018-10-03T03:39:48.467Z,1.37
2018-10-03T03:44:53.063Z,1.00
2018-10-03T03:49:57.666Z,1.50
2018-10-03T03:55:02.450Z,1.60
2018-10-03T04:00:07.269Z,1.17
2018-10-03T04:05:11.781Z,1.02
2018-10-03T04:10:16.823Z,1.27
2018-10-03T04:15:21.267Z,1.37
2018-10-03T04:20:25.876Z,1.15
2018-10-03T04:25:30.309Z,1.30
2018-10-03T04:30:34.886Z,1.55
2018-10-03T04:35:39.505Z,1.65
2018-10-03T04:40:44.147Z,0.93
2018-10-03T04:45:48.688Z,1.10
2018-10-03T04:50:53.914Z,1.40
2018-10-03T04:55:58.899Z,1.00
2018-10-03T05:01:03.641Z,1.60
2018-10-03T05:06:09.401Z,1.57
2018-10-03T05:11:14.486Z,1.35
2018-10-03T05:16:18.857Z,1.87
2018-10-03T05:21:23.829Z,1.60
2018-10-03T05:26:28.371Z,1.62
2018-10-03T05:31:33.112Z,1.57
2018-10-03T05:36:37.480Z,1.60
2018-10-03T05:41:43.620Z,2.90
2018-10-03T05:46:48.163Z,1.80
2018-10-03T05:51:52.792Z,1.22
2018-10-03T05:56:57.537Z,1.65
2018-10-03T06:02:02.045Z,1.62
2018-10-03T06:07:07.121Z,1.82
2018-10-03T06:12:11.788Z,2.00
2018-10-03T06:17:16.295Z,2.05
2018-10-03T06:22:20.757Z,2.45
2018-10-03T06:27:26.676Z,2.58
2018-10-03T06:32:31.310Z,2.60
2018-10-03T06:37:35.749Z,2.12
2018-10-03T06:42:40.571Z,2.22
2018-10-03T06:47:46.210Z,3.10
2018-10-03T06:52:51.156Z,2.47
2018-10-03T06:57:56.772Z,2.25
2018-10-03T07:03:02.902Z,2.95
2018-10-03T07:08:07.358Z,2.20
2018-10-03T07:13:12.857Z,2.40
2018-10-03T07:18:18.990Z,2.37
2018-10-03T07:23:24.132Z,2.80
2018-10-03T07:28:29.113Z,2.05
2018-10-03T07:33:34.526Z,1.95
2018-10-03T07:38:39.448Z,2.37
2018-10-03T07:43:44.450Z,2.47
2018-10-03T07:48:50.576Z,2.42
2018-10-03T07:53:55.660Z,2.62
2018-10-03T07:59:00.206Z,7.22
2018-10-03T08:04:04.915Z,2.40
2018-10-03T08:09:10.489Z,3.00
2018-10-03T08:14:16.875Z,3.25
2018-10-03T08:19:21.766Z,2.60
2018-10-03T08:24:26.369Z,2.50
2018-10-03T08:29:30.943Z,2.67
2018-10-03T08:34:35.688Z,2.25
2018-10-03T08:39:40.119Z,2.42
2018-10-03T08:44:44.545Z,2.95
2018-10-03T08:49:49.389Z,2.17
2018-10-03T08:54:54.358Z,2.40
2018-10-03T08:59:58.986Z,1.92
2018-10-03T09:05:04.213Z,2.20
2018-10-03T09:10:10.073Z,1.90
2018-10-03T09:15:15.030Z,2.25
2018-10-03T09:20:21.193Z,2.35
2018-10-03T09:25:25.982Z,2.35
2018-10-03T09:30:32.422Z,2.02
2018-10-03T09:35:38.669Z,2.30
2018-10-03T09:40:43.365Z,2.20
2018-10-03T09:45:48.584Z,3.17
2018-10-03T09:50:53.356Z,2.70
2018-10-03T09:55:57.972Z,2.52
2018-10-03T10:01:08.245Z,2.72
2018-10-03T10:06:12.795Z,4.10
2018-10-03T10:11:18.290Z,3.72
2018-10-03T10:16:24.182Z,2.47
2018-10-03T10:21:28.814Z,3.02
2018-10-03T10:26:33.327Z,2.35
2018-10-03T10:31:38.152Z,2.40
2018-10-03T10:36:42.746Z,2.67
2018-10-03T10:41:47.777Z,3.80
2018-10-03T10:46:52.937Z,2.62
2018-10-03T10:51:58.192Z,2.40
2018-10-03T10:57:02.878Z,5.72
2018-10-03T11:02:07.350Z,3.25
2018-10-03T11:07:17.906Z,2.00
2018-10-03T11:12:22.353Z,1.95
2018-10-03T11:17:26.666Z,1.85
2018-10-03T11:22:31.687Z,2.00
2018-10-03T11:27:36.257Z,2.20
2018-10-03T11:32:40.933Z,2.05
2018-10-03T11:37:45.965Z,2.70
2018-10-03T11:42:50.607Z,1.60
2018-10-03T11:47:55.476Z,2.85
2018-10-03T11:53:00.666Z,3.12
2018-10-03T11:58:05.760Z,1.65
2018-10-03T12:03:10.953Z,2.27
2018-10-03T12:08:15.519Z,2.20
2018-10-03T12:13:21.411Z,3.60
2018-10-03T12:18:25.860Z,2.52
2018-10-03T12:23:30.429Z,2.52
2018-10-03T12:28:35.090Z,2.65
2018-10-03T12:33:39.642Z,2.17
2018-10-03T12:38:44.754Z,2.50
2018-10-03T12:43:49.357Z,1.70
2018-10-03T12:48:54.275Z,1.98
2018-10-03T12:53:59.599Z,1.85
2018-10-03T12:59:04.220Z,2.10
2018-10-03T13:04:13.816Z,2.30
2018-10-03T13:09:21.803Z,2.05
2018-10-03T13:14:29.093Z,1.98
2018-10-03T13:19:35.347Z,2.12
2018-10-03T13:24:40.557Z,2.02
2018-10-03T13:29:45.752Z,2.20
2018-10-03T13:34:50.551Z,2.15
2018-10-03T13:39:55.462Z,2.22
2018-10-03T13:44:59.956Z,2.25
2018-10-03T13:50:04.744Z,2.20
2018-10-03T13:55:10.737Z,1.75
2018-10-03T14:00:16.357Z,2.35
2018-10-03T14:05:21.367Z,2.42
2018-10-03T14:10:26.119Z,2.37
2018-10-03T14:15:31.431Z,2.45
2018-10-03T14:20:36.018Z,3.42
2018-10-03T14:25:40.228Z,2.98
2018-10-03T14:30:46.245Z,3.58
2018-10-03T14:35:51.370Z,3.77
2018-10-03T14:40:56.320Z,3.47
2018-10-03T14:46:02.128Z,3.60
2018-10-03T14:51:10.052Z,3.85
2018-10-03T14:56:19.289Z,3.92
2018-10-03T15:01:25.183Z,3.17
2018-10-03T15:06:29.655Z,3.70
2018-10-03T15:11:34.169Z,3.58
2018-10-03T15:16:39.322Z,3.98
2018-10-03T15:21:43.875Z,3.72
2018-10-03T15:26:48.424Z,4.22
2018-10-03T15:31:52.912Z,3.52
2018-10-03T15:36:57.843Z,3.52
2018-10-03T15:42:02.360Z,5.37
2018-10-03T15:47:06.913Z,3.67
2018-10-03T15:52:12.025Z,3.35
2018-10-03T15:57:16.466Z,3.90
2018-10-03T16:02:21.010Z,3.30
2018-10-03T16:07:26.220Z,3.40
2018-10-03T16:12:30.693Z,3.72
2018-10-03T16:17:35.543Z,4.28
2018-10-03T16:22:40.231Z,3.40
2018-10-03T16:27:44.825Z,3.83
2018-10-03T16:32:49.540Z,3.25
2018-10-03T16:37:54.028Z,3.90
2018-10-03T16:42:58.646Z,4.15
2018-10-03T16:48:02.939Z,5.28
2018-10-03T16:53:07.747Z,3.83
2018-10-03T16:58:12.301Z,3.52
2018-10-03T17:03:16.838Z,4.03
2018-10-03T17:08:21.154Z,3.75
2018-10-03T17:13:26.159Z,3.05
2018-10-03T17:18:30.441Z,3.00
2018-10-03T17:23:34.960Z,3.35
2018-10-03T17:28:39.324Z,3.30
2018-10-03T17:33:43.906Z,3.20
2018-10-03T17:38:48.335Z,3.17
2018-10-03T17:43:53.068Z,3.05
2018-10-03T17:48:58.130Z,3.20
2018-10-03T17:54:02.601Z,3.50
2018-10-03T17:59:07.859Z,3.25
2018-10-03T18:04:12.899Z,3.15
2018-10-03T18:09:17.551Z,3.33
2018-10-03T18:14:22.196Z,3.92
2018-10-03T18:19:26.602Z,3.50
2018-10-03T18:24:30.988Z,3.60
2018-10-03T18:29:35.386Z,4.25
2018-10-03T18:34:40.481Z,4.20
2018-10-03T18:39:44.650Z,3.60
2018-10-03T18:44:48.776Z,3.92
2018-10-03T18:49:54.153Z,3.85
2018-10-03T18:54:58.663Z,4.30
2018-10-03T19:00:03.289Z,4.70
2018-10-03T19:05:07.924Z,5.05
2018-10-03T19:10:13.438Z,4.28
2018-10-03T19:15:18.394Z,4.03
2018-10-03T19:20:23.845Z,4.33
2018-10-03T19:25:33.859Z,3.95
2018-10-03T19:30:41.352Z,3.83
2018-10-03T19:35:46.365Z,4.10
2018-10-03T19:40:51.214Z,4.35
2018-10-03T19:45:56.433Z,4.60
2018-10-03T19:51:01.284Z,4.15
2018-10-03T19:56:05.551Z,4.70
2018-10-03T20:01:10.055Z,4.70
2018-10-03T20:06:14.808Z,4.15
2018-10-03T20:11:19.202Z,4.50
2018-10-03T20:16:23.709Z,5.30
2018-10-03T20:21:28.711Z,4.75
2018-10-03T20:26:33.373Z,5.10
2018-10-03T20:31:38.474Z,5.17
2018-10-03T20:36:43.764Z,5.55
2018-10-03T20:41:48.198Z,5.50
2018-10-03T20:46:54.039Z,5.65
2018-10-03T20:51:59.144Z,5.60
2018-10-03T20:57:04.172Z,5.33
2018-10-03T21:02:09.027Z,5.03
2018-10-03T21:07:13.902Z,4.72
2018-10-03T21:12:19.377Z,5.08
2018-10-03T21:17:24.884Z,5.33
2018-10-03T21:22:29.734Z,5.10
2018-10-03T21:27:34.360Z,5.03
2018-10-03T21:32:38.752Z,4.75
2018-10-03T21:37:42.876Z,4.45
2018-10-03T21:42:48.123Z,4.70
2018-10-03T21:47:52.937Z,4.65
2018-10-03T21:52:58.324Z,4.90
2018-10-03T21:58:06.876Z,4.90
2018-10-03T22:03:12.742Z,5.22
2018-10-03T22:08:20.124Z,5.08
2018-10-03T22:13:26.801Z,4.70
2018-10-03T22:18:32.103Z,5.08
2018-10-03T22:23:38.182Z,4.67
2018-10-03T22:28:43.119Z,4.17
2018-10-03T22:33:49.483Z,4.65
2018-10-03T22:38:54.628Z,3.95
2018-10-03T22:44:00.423Z,3.98
2018-10-03T22:49:05.591Z,4.03
2018-10-03T22:54:11.181Z,3.62
2018-10-03T22:59:17.127Z,3.67
2018-10-03T23:04:22.301Z,3.45
2018-10-03T23:09:27.524Z,3.27
2018-10-03T23:14:33.525Z,3.17
2018-10-03T23:19:38.580Z,3.17
2018-10-03T23:24:43.972Z,3.40
2018-10-03T23:29:51.025Z,2.87
2018-10-03T23:34:56.335Z,2.77
2018-10-03T23:40:01.490Z,3.08
2018-10-03T23:45:09.197Z,3.05
2018-10-03T23:50:14.407Z,2.80
2018-10-03T23:55:20.159Z,3.60
